Página principal
METAR-TAF:

METAR-TAF

Aeroportos :

Istambul Atatürk, Turquia

Aeroporto de Istambul Atatürk

latitude: 40-58N, longitude: 028-49E, altura: 48 m

Observação actual do tempo

O boletim foi feito há 35 minutos, às 10:20 UTC
Vento 8 kt de este, variando entre es-nordeste e su-sudeste
Temperatura 26°C
Humidade 24%
Pressão 1021 hPa
Visibilidade 10 km ou mais
sem nuvens abaixo de 1500 metros e sem cumulonimbus

METAR: LTBA 181020Z 10008KT 060V160 CAVOK 26/04 Q1021 NOSIG RMK RWY17L 13004KT 010V180 RWY05 07007KT RWY23 10006KT 080V140

Hora: 13:55 (10:55 UTC)

Previsão

O boletim foi feito há 6 horas e 15 minutos, às 04:40 UTC
Previsão válida de 18 às 06 UTC a 19 às 12 UTC
Vento 12 kt de nor-nordeste
Visibilidade 10 km ou mais
sem nuvens abaixo de 1500 metros e sem cumulonimbus
Tornando-se
de 19 às 06 UTC a 19 às 09 UTC
Vento 2 kt com direcção variável

TAF: LTBA 180440Z 1806/1912 03012KT CAVOK BECMG 1906/1909 VRB02KT

Observações e previsões do tempo de mais de 4000 aeroportos (mensagens METAR e TAF).

As estações disponíveis são os pontos amarelos e vermelhos sobre o mapa.

Mova o rato sobre o mapa para ver o nome da estação.

Depois clique no ponto para visualizar as observações e previsões meteorológicas.

Para alterar o mapa : clique nos botões verdes com uma cruz preta para aumentar o zoom; no botão verde com uma pitada de zoom; ou nas setas verdes para mapas adjacentes.


METAR-TAF: